< < Back
Terminal Aerodrome Forecast


Current Version              Previous Versions:   1  2  3  4  5  6  7  8  9  

Terminal Aerodrome Forecast

424
FTUS42 KGSP 272059 AAA
TAFCLT
TAF AMD
KCLT 272059Z 2721/2818 14007KT P6SM BKN060
      TEMPO 2721/2724 VRB10G17KT 5SM -TSRA BR BKN040CB
     FM280000 34010KT P6SM BKN050
     FM280300 06003KT P6SM BKN070 OVC250
     FM280800 14003KT P6SM FEW050 BKN250
     FM281600 00000KT P6SM BKN035=

Latest METAR

164
SAUS70 KWBC 280956
MTRCLT
METAR KCLT 280952Z 00000KT 10SM FEW250 23/21 A3000 RMK AO2 SLP148
T02280206


USA.gov is the U.S. government's official web portal to all federal, state and local government web resources and services.